createdAt,value
2023-05-05T00:01:03.876Z,98213.45
2023-05-05T00:03:31.036Z,98216.86
2023-05-05T00:05:58.380Z,98217.36
2023-05-05T00:08:26.451Z,98218.38
2023-05-05T00:10:54.159Z,98209.23
2023-05-05T00:13:21.872Z,98204.27
2023-05-05T00:15:51.515Z,98202.73
2023-05-05T00:18:19.418Z,98201.12
2023-05-05T00:20:47.708Z,98204.09
2023-05-05T00:23:20.047Z,98204.48
2023-05-05T00:25:47.691Z,98206.05
2023-05-05T00:28:14.687Z,98200.79
2023-05-05T00:30:44.900Z,98200.67
2023-05-05T00:33:12.570Z,98203.13
2023-05-05T00:35:39.787Z,98199.03
2023-05-05T00:38:08.186Z,98194.54
2023-05-05T00:40:35.467Z,98189.73
2023-05-05T00:43:03.154Z,98185.07
2023-05-05T00:45:31.023Z,98186.92
2023-05-05T00:48:00.529Z,98185.47
2023-05-05T00:50:30.790Z,98182.01
2023-05-05T00:53:06.494Z,98179.46
2023-05-05T00:55:35.409Z,98176.70
2023-05-05T00:58:04.457Z,98176.40
2023-05-05T01:04:36.158Z,98178.16
2023-05-05T01:08:37.391Z,98180.78
2023-05-05T01:12:26.731Z,98177.22
2023-05-05T01:20:10.775Z,98174.52
2023-05-05T01:24:15.727Z,98174.27
2023-05-05T01:28:15.848Z,98173.48
2023-05-05T01:32:36.297Z,98171.38
2023-05-05T01:36:29.228Z,98174.51
2023-05-05T01:40:18.480Z,98174.98
2023-05-05T01:44:07.426Z,98174.02
2023-05-05T01:47:57.867Z,98174.42
2023-05-05T01:51:46.794Z,98169.09
2023-05-05T01:55:54.386Z,98168.05
2023-05-05T01:59:46.572Z,98168.31
2023-05-05T02:03:36.550Z,98170.20
2023-05-05T02:07:25.790Z,98181.91
2023-05-05T02:11:22.478Z,98182.52
2023-05-05T02:15:11.228Z,98174.34
2023-05-05T02:23:00.181Z,98172.23
2023-05-05T02:27:02.846Z,98169.36
2023-05-05T02:30:55.570Z,98167.33
2023-05-05T02:46:31.923Z,98172.25
2023-05-05T02:50:25.347Z,98170.39
2023-05-05T02:54:17.740Z,98168.61
2023-05-05T03:01:52.815Z,98163.67
2023-05-05T03:05:43.095Z,98161.78
2023-05-05T03:09:38.768Z,98158.59
2023-05-05T03:13:31.165Z,98162.20
2023-05-05T03:17:26.937Z,98164.81
2023-05-05T03:21:17.101Z,98159.10
2023-05-05T03:25:19.594Z,98159.48
2023-05-05T03:29:15.304Z,98158.94
2023-05-05T03:33:08.007Z,98164.09
2023-05-05T03:36:58.989Z,98166.52
2023-05-05T03:40:48.233Z,98166.17
2023-05-05T03:44:35.573Z,98169.94
2023-05-05T03:51:56.348Z,98164.27
2023-05-05T03:55:50.638Z,98168.82
2023-05-05T04:02:31.617Z,98169.52
2023-05-05T04:04:58.844Z,98164.73
2023-05-05T04:07:25.996Z,98164.23
2023-05-05T04:09:56.856Z,98159.47
2023-05-05T04:12:24.226Z,98162.98
2023-05-05T04:14:51.651Z,98165.06
2023-05-05T04:17:19.249Z,98159.54
2023-05-05T04:19:46.355Z,98160.72
2023-05-05T04:22:13.559Z,98162.31
2023-05-05T04:24:41.225Z,98158.29
2023-05-05T04:27:08.318Z,98163.36
2023-05-05T04:29:35.459Z,98165.05
2023-05-05T04:32:02.340Z,98164.86
2023-05-05T04:34:29.456Z,98170.47
2023-05-05T04:36:57.211Z,98171.23
2023-05-05T04:39:24.715Z,98177.16
2023-05-05T04:41:51.869Z,98182.15
2023-05-05T04:44:19.554Z,98187.99
2023-05-05T04:46:46.765Z,98195.97
2023-05-05T04:49:14.062Z,98195.52
2023-05-05T04:51:42.804Z,98194.39
2023-05-05T04:54:10.147Z,98194.48
2023-05-05T04:56:37.385Z,98196.38
2023-05-05T04:59:04.655Z,98191.91
2023-05-05T05:01:47.235Z,98188.92
2023-05-05T05:04:18.887Z,98190.91
2023-05-05T05:06:46.470Z,98189.42
2023-05-05T05:09:14.136Z,98186.42
2023-05-05T05:11:41.194Z,98184.83
2023-05-05T05:14:08.451Z,98187.77
2023-05-05T05:16:35.458Z,98191.02
2023-05-05T05:19:02.417Z,98192.86
2023-05-05T05:21:29.393Z,98193.05
2023-05-05T05:23:56.392Z,98197.73
2023-05-05T05:26:23.786Z,98195.34
2023-05-05T05:28:50.907Z,98195.06
2023-05-05T05:31:18.317Z,98187.95
2023-05-05T05:33:45.609Z,98188.69
2023-05-05T05:36:12.727Z,98188.58
2023-05-05T05:38:40.093Z,98193.06
2023-05-05T05:41:10.178Z,98197.81
2023-05-05T05:43:37.029Z,98198.23
2023-05-05T05:46:05.361Z,98200.74
2023-05-05T05:48:33.295Z,98206.73
2023-05-05T05:51:00.510Z,98204.24
2023-05-05T05:53:27.585Z,98207.55
2023-05-05T05:55:54.865Z,98208.21
2023-05-05T05:58:21.885Z,98212.34
2023-05-05T06:00:49.663Z,98210.75
2023-05-05T06:03:17.020Z,98210.14
2023-05-05T06:05:46.525Z,98208.42
2023-05-05T06:08:16.593Z,98206.44
2023-05-05T06:10:43.508Z,98206.50
2023-05-05T06:13:10.903Z,98208.98
2023-05-05T06:15:38.239Z,98204.29
2023-05-05T06:18:05.317Z,98207.20
2023-05-05T06:20:32.486Z,98203.72
2023-05-05T06:22:59.439Z,98204.36
2023-05-05T06:25:26.799Z,98201.39
2023-05-05T06:27:53.886Z,98201.04
2023-05-05T06:30:21.482Z,98198.45
2023-05-05T06:32:48.910Z,98198.49
2023-05-05T06:35:15.959Z,98200.08
2023-05-05T06:37:44.485Z,98204.30
2023-05-05T06:41:15.458Z,98201.61
2023-05-05T06:49:19.618Z,98204.52
2023-05-05T06:53:07.734Z,98207.98
2023-05-05T06:57:01.299Z,98202.88
2023-05-05T07:01:01.332Z,98200.48
2023-05-05T07:04:53.362Z,98194.30
2023-05-05T07:08:50.512Z,98190.42
2023-05-05T07:16:32.706Z,98195.34
2023-05-05T07:20:30.391Z,98190.54
2023-05-05T07:24:20.272Z,98184.02
2023-05-05T07:28:08.516Z,98179.39
2023-05-05T07:32:04.043Z,98175.77
2023-05-05T07:36:00.043Z,98173.42
2023-05-05T07:40:02.298Z,98173.17
2023-05-05T07:43:59.811Z,98184.60
2023-05-05T07:47:50.686Z,98180.87
2023-05-05T07:51:44.130Z,98182.10
2023-05-05T07:55:49.008Z,98177.62
2023-05-05T08:03:33.081Z,98172.06
2023-05-05T08:07:26.341Z,98174.05
2023-05-05T08:11:17.329Z,98172.93
2023-05-05T08:15:05.528Z,98172.43
2023-05-05T08:19:09.697Z,98171.87
2023-05-05T08:26:46.697Z,98173.04
2023-05-05T08:30:41.654Z,98173.35
2023-05-05T08:34:31.507Z,98177.94
2023-05-05T08:38:22.213Z,98175.46
2023-05-05T08:42:22.266Z,98171.02
2023-05-05T08:49:53.174Z,98173.23
2023-05-05T08:53:43.336Z,98168.96
2023-05-05T08:57:44.089Z,98167.52
2023-05-05T09:01:40.036Z,98164.77
2023-05-05T09:09:09.842Z,98161.56
2023-05-05T09:12:41.853Z,98158.64
2023-05-05T09:15:57.574Z,98163.59
2023-05-05T09:19:09.302Z,98162.77
2023-05-05T09:22:22.455Z,98170.36
2023-05-05T09:25:11.889Z,98166.63
2023-05-05T09:28:12.188Z,98168.02
2023-05-05T09:31:59.134Z,98168.30
2023-05-05T09:35:33.455Z,98169.73
2023-05-05T09:39:04.276Z,98168.34
2023-05-05T09:42:21.786Z,98169.39
2023-05-05T09:45:25.825Z,98172.63
2023-05-05T09:48:38.865Z,98168.05
2023-05-05T09:52:29.135Z,98176.74
2023-05-05T09:56:09.289Z,98174.86
2023-05-05T10:00:00.363Z,98169.52
2023-05-05T10:03:37.039Z,98167.02
2023-05-05T10:06:53.020Z,98160.73
2023-05-05T10:10:25.754Z,98164.02
2023-05-05T10:14:08.543Z,98166.35
2023-05-05T10:18:06.844Z,98162.54
2023-05-05T10:20:44.320Z,98162.45
2023-05-05T10:24:25.371Z,98159.92
2023-05-05T10:28:28.913Z,98156.11
2023-05-05T10:31:42.723Z,98155.38
2023-05-05T10:34:34.915Z,98151.98
2023-05-05T10:37:24.089Z,98151.05
2023-05-05T10:40:32.976Z,98156.57
2023-05-05T10:43:01.697Z,98154.24
2023-05-05T10:45:29.417Z,98154.20
2023-05-05T10:48:00.800Z,98154.92
2023-05-05T10:51:40.116Z,98148.98
2023-05-05T10:55:06.527Z,98143.59
2023-05-05T10:58:59.187Z,98142.38
2023-05-05T11:02:30.343Z,98139.91
2023-05-05T11:06:18.129Z,98140.95
2023-05-05T11:10:08.861Z,98145.18
2023-05-05T11:13:36.234Z,98140.16
2023-05-05T11:16:58.989Z,98134.95
2023-05-05T11:19:45.139Z,98128.41
2023-05-05T11:22:12.686Z,98130.55
2023-05-05T11:25:40.160Z,98134.23
2023-05-05T11:28:54.761Z,98130.40
2023-05-05T11:32:00.568Z,98127.59
2023-05-05T11:35:30.216Z,98128.70
2023-05-05T11:38:38.561Z,98126.50
2023-05-05T11:42:06.591Z,98126.75
2023-05-05T11:46:05.314Z,98123.86
2023-05-05T11:49:53.022Z,98124.21
2023-05-05T11:53:47.904Z,98128.11
2023-05-05T11:57:50.693Z,98120.78
2023-05-05T12:01:54.578Z,98123.02
2023-05-05T12:05:43.852Z,98114.06
2023-05-05T12:09:41.141Z,98109.86
2023-05-05T12:13:36.943Z,98110.11
2023-05-05T12:17:27.520Z,98109.70
2023-05-05T12:21:16.967Z,98106.11
2023-05-05T12:25:04.936Z,98100.86
2023-05-05T12:29:05.834Z,98101.69
2023-05-05T12:36:48.881Z,98104.95
2023-05-05T12:40:39.641Z,98105.40
2023-05-05T12:44:29.221Z,98095.01
2023-05-05T12:52:36.630Z,98091.66
2023-05-05T12:56:34.712Z,98085.06
2023-05-05T13:00:28.764Z,98083.61
2023-05-05T13:04:30.156Z,98082.95
2023-05-05T13:29:56.357Z,98065.52
2023-05-05T13:32:23.644Z,98066.60
2023-05-05T13:46:12.224Z,98048.59
2023-05-05T14:16:15.152Z,98029.15
2023-05-05T14:20:03.081Z,98025.27
2023-05-05T15:53:42.684Z,98020.59
2023-05-05T16:27:52.693Z,98001.95
2023-05-05T16:31:57.355Z,98004.91
2023-05-05T16:35:51.278Z,98007.06
2023-05-05T16:39:39.178Z,98012.87
2023-05-05T16:43:57.430Z,98012.27
2023-05-05T16:58:58.096Z,98010.66
2023-05-05T17:03:03.139Z,98010.92
2023-05-05T17:06:51.001Z,98010.19
2023-05-05T17:18:35.952Z,98008.02
2023-05-05T17:22:26.688Z,98005.52
2023-05-05T17:26:17.088Z,98010.08
2023-05-05T17:34:04.994Z,98015.92
2023-05-05T17:38:00.849Z,98015.73
2023-05-05T17:41:56.208Z,98020.45
2023-05-05T17:46:00.622Z,98018.69
2023-05-05T17:50:01.830Z,98025.10
2023-05-05T17:54:01.726Z,98025.19
2023-05-05T17:57:49.920Z,98025.95
2023-05-05T18:01:38.456Z,98031.27
2023-05-05T18:13:35.392Z,98027.52
2023-05-05T18:17:33.276Z,98031.80
2023-05-05T18:21:23.198Z,98036.12
2023-05-05T18:25:32.226Z,98037.86
2023-05-05T18:33:20.819Z,98042.59
2023-05-05T18:37:09.066Z,98040.70
2023-05-05T18:40:59.496Z,98042.74
2023-05-05T18:44:48.627Z,98051.63
2023-05-05T18:48:49.155Z,98049.68
2023-05-05T18:53:01.498Z,98054.54
2023-05-05T18:56:51.112Z,98057.13
2023-05-05T19:00:47.205Z,98058.14
2023-05-05T19:04:45.051Z,98051.90
2023-05-05T19:12:23.689Z,98051.19
2023-05-05T19:16:13.006Z,98056.20
2023-05-05T19:20:12.703Z,98053.84
2023-05-05T19:24:02.192Z,98050.23
2023-05-05T19:27:32.375Z,98050.71
2023-05-05T19:31:21.573Z,98047.95
2023-05-05T19:35:16.774Z,98046.30
2023-05-05T19:43:00.176Z,98046.42
2023-05-05T19:46:59.685Z,98045.09
2023-05-05T19:50:53.153Z,98048.52
2023-05-05T19:54:42.639Z,98046.05
2023-05-05T19:58:38.014Z,98051.52
2023-05-05T20:02:31.525Z,98053.11
2023-05-05T20:17:52.256Z,98045.81
2023-05-05T20:29:28.035Z,98048.73
2023-05-05T20:37:15.250Z,98048.33
2023-05-05T20:41:04.810Z,98049.19
2023-05-05T20:43:52.065Z,98049.77
2023-05-05T20:47:03.650Z,98051.05
2023-05-05T20:50:35.052Z,98055.52
2023-05-05T20:54:22.562Z,98047.36
2023-05-05T21:06:06.525Z,98048.67
2023-05-05T21:09:54.927Z,98046.03
2023-05-05T21:13:49.162Z,98045.13
2023-05-05T21:17:36.980Z,98054.71
2023-05-05T21:21:25.953Z,98052.55
2023-05-05T21:24:13.370Z,98042.68
2023-05-05T21:31:42.445Z,98039.71
2023-05-05T21:35:45.846Z,98037.51
2023-05-05T21:39:35.152Z,98037.16
2023-05-05T21:43:30.905Z,98029.48
2023-05-05T21:47:20.511Z,98028.59
2023-05-05T21:51:24.564Z,98026.77
2023-05-05T22:02:59.731Z,98010.88
2023-05-05T22:06:47.452Z,98011.66
2023-05-05T22:10:21.740Z,98006.84
2023-05-05T22:13:32.808Z,98008.39
2023-05-05T22:16:20.933Z,98007.58
2023-05-05T22:19:47.900Z,98008.29
2023-05-05T22:22:24.623Z,98001.27
2023-05-05T22:25:09.822Z,98002.80
2023-05-05T22:28:38.934Z,97999.20
2023-05-05T22:32:05.919Z,98001.66
2023-05-05T22:35:33.506Z,98007.34
2023-05-05T22:38:22.559Z,98005.29
2023-05-05T22:41:39.835Z,98005.17
2023-05-05T22:44:47.469Z,98000.10
2023-05-05T22:48:16.727Z,97996.95
2023-05-05T22:51:07.813Z,97994.14
2023-05-05T22:53:58.923Z,97990.88
2023-05-05T22:56:39.135Z,97990.33
2023-05-05T22:59:07.212Z,97985.81
2023-05-05T23:01:35.206Z,97991.61
2023-05-05T23:04:02.519Z,97988.02
2023-05-05T23:06:30.370Z,97985.27
2023-05-05T23:08:57.957Z,97979.38
2023-05-05T23:11:26.900Z,97979.20
2023-05-05T23:13:54.733Z,97969.48
2023-05-05T23:16:22.957Z,97967.60
2023-05-05T23:18:50.361Z,97965.36
2023-05-05T23:21:17.813Z,97960.71
2023-05-05T23:23:45.207Z,97964.60
2023-05-05T23:26:13.921Z,97966.61
2023-05-05T23:28:41.508Z,97958.06
2023-05-05T23:31:09.709Z,97957.70
2023-05-05T23:33:36.938Z,97958.92
2023-05-05T23:36:04.867Z,97960.55
2023-05-05T23:38:32.246Z,97958.64
2023-05-05T23:40:59.403Z,97960.05
2023-05-05T23:43:27.040Z,97962.19
2023-05-05T23:45:54.439Z,97966.20
2023-05-05T23:48:21.742Z,97960.83
2023-05-05T23:50:48.956Z,97960.07
2023-05-05T23:53:16.893Z,97958.94
2023-05-05T23:55:44.251Z,97956.82
2023-05-05T23:58:11.520Z,97951.16
